Dong Gui 5 — BMKF — position and weather

sailwx.info

Track history (hours):
 
Tides and Currents Weather Stations Pressure Air Temp Water Temp Dewpoint Dewpoint Depression Visibility Wind Speed Wind Dir Waves Ship Positions

Dong Gui 5

Last reported at 2016-Apr-27 01:21 UTC. Time now 2016-Apr-28 19:45 UTC.
Position N 22°55' E 113°26'.

Length 62 m.

Type: Tanker. MMSI: 412500730.

Date/timePositionNaut miles runAvg speedWind from/ knotsBaromVisibWave heightAir tempDewpointWater temp
2016-Apr-27 01:21N 22°55' E 113°26'6 6.6
2016-Apr-27 00:23N 22°52' E 113°32'2 1.6
2016-Apr-26 23:10N 22°51' E 113°34'0 0.0
2016-Apr-26 22:14N 22°51' E 113°34'0 0.0
2016-Apr-26 21:16N 22°51' E 113°34'0 0.0
2016-Apr-26 19:25N 22°51' E 113°34'0 0.0
2016-Apr-26 05:20N 22°51' E 113°33'0 0.0
2016-Apr-26 03:17N 22°51' E 113°33'0 0.0
2016-Apr-26 01:27N 22°51' E 113°33'0 0.0
2016-Apr-26 00:32N 22°51' E 113°33'0 0.1
2016-Apr-25 23:33N 22°51' E 113°34'0 0.0
2016-Apr-25 22:24N 22°51' E 113°34'0 0.0
2016-Apr-25 21:33N 22°51' E 113°34'0 0.0
2016-Apr-25 20:31N 22°51' E 113°34'0 0.1
2016-Apr-25 19:33N 22°51' E 113°33'0 0.1
2016-Apr-25 18:31N 22°51' E 113°33'0 0.0
2016-Apr-25 17:31N 22°51' E 113°33'0 0.0
2016-Apr-25 16:24N 22°51' E 113°33'0 0.0
2016-Apr-25 15:21N 22°51' E 113°33'0 0.0
2016-Apr-25 14:23N 22°51' E 113°33'0 0.0
2016-Apr-25 13:33N 22°51' E 113°33'0 0.1
2016-Apr-25 12:23N 22°51' E 113°34'0 0.0
2016-Apr-25 11:32N 22°51' E 113°34'0 0.0
2016-Apr-25 10:17N 22°51' E 113°34'0 0.0
2016-Apr-25 09:31N 22°51' E 113°34'0 0.0
2016-Apr-25 08:33N 22°51' E 113°34'0 0.0
2016-Apr-25 07:28N 22°51' E 113°34'0 0.0
2016-Apr-25 06:30N 22°51' E 113°34'0 0.0
2016-Apr-25 04:10N 22°51' E 113°33'0 0.0
2016-Apr-25 03:12N 22°51' E 113°33'0 0.0
2016-Apr-25 02:30N 22°51' E 113°33'0 0.0
2016-Apr-25 00:25N 22°51' E 113°33'0 0.1
2016-Apr-24 23:29N 22°51' E 113°34'0 0.0
2016-Apr-24 22:31N 22°51' E 113°34'0 0.0
2016-Apr-24 21:30N 22°51' E 113°34'0 0.0
2016-Apr-24 20:28N 22°51' E 113°34'0 0.0
2016-Apr-24 19:28N 22°51' E 113°34'0 0.0
2016-Apr-24 17:28N 22°51' E 113°33'0 0.0
2016-Apr-24 16:30N 22°51' E 113°33'0 0.0
2016-Apr-24 14:08N 22°51' E 113°33'0 0.0
2016-Apr-24 13:26N 22°51' E 113°33'0 0.1
2016-Apr-24 12:28N 22°51' E 113°34'0 0.0
2016-Apr-24 11:17N 22°51' E 113°34'0 0.0
2016-Apr-24 10:28N 22°51' E 113°34'0 0.0
2016-Apr-24 09:31N 22°51' E 113°34'0 0.0
2016-Apr-24 08:29N 22°51' E 113°34'0 0.0
2016-Apr-24 06:27N 22°51' E 113°34'0 0.0
2016-Apr-24 05:32N 22°51' E 113°34'7 6.4
2016-Apr-24 04:30N 22°58' E 113°33'1 0.8
2016-Apr-24 03:12N 22°58' E 113°34'0 0.0
2016-Apr-24 02:32N 22°58' E 113°34'0 0.0
2016-Apr-24 01:32N 22°58' E 113°34'0 0.0
2016-Apr-24 00:31N 22°58' E 113°34'0 0.0
2016-Apr-23 22:08N 22°58' E 113°34'0 0.0
2016-Apr-23 21:27N 22°58' E 113°34'0 0.0
2016-Apr-23 19:33N 22°58' E 113°34'0 0.0
2016-Apr-23 18:06N 22°58' E 113°34'0 0.0
2016-Apr-23 17:32N 22°58' E 113°34'0 0.0
2016-Apr-23 16:31N 22°58' E 113°34'0 0.0
2016-Apr-23 14:08N 22°58' E 113°34'4 0.5
2016-Apr-23 06:28N 22°57' E 113°30'6 0.9
2016-Apr-22 23:33N 22°52' E 113°33'0 0.0
2016-Apr-22 22:31N 22°52' E 113°33'0 0.0
2016-Apr-22 21:27N 22°52' E 113°33'0 0.0
2016-Apr-22 20:30N 22°52' E 113°33'0 0.0
2016-Apr-22 19:32N 22°52' E 113°33'0 0.0
2016-Apr-22 18:33N 22°52' E 113°33'0 0.0
2016-Apr-22 11:16N 22°52' E 113°33'0 0.0
2016-Apr-22 10:33N 22°52' E 113°33'0 0.0
2016-Apr-22 09:32N 22°52' E 113°33'0 0.0
2016-Apr-22 08:21N 22°52' E 113°33'0 0.0
2016-Apr-22 07:33N 22°52' E 113°33'0 0.0
2016-Apr-22 06:31N 22°52' E 113°33'0 0.0
2016-Apr-22 05:33N 22°52' E 113°33'0 0.0
2016-Apr-21 23:33N 22°52' E 113°33'0 0.0
2016-Apr-21 22:28N 22°52' E 113°33'0 0.0
2016-Apr-21 21:31N 22°52' E 113°33'0 0.0
2016-Apr-21 20:33N 22°52' E 113°33'0 0.0
2016-Apr-21 19:28N 22°52' E 113°33'0 0.0
2016-Apr-21 18:31N 22°52' E 113°33'0 0.0
2016-Apr-21 17:30N 22°52' E 113°33'0 0.0
2016-Apr-21 16:30N 22°52' E 113°33'0 0.0
2016-Apr-21 11:16N 22°52' E 113°33'0 0.0
2016-Apr-21 10:28N 22°52' E 113°33'0 0.0
2016-Apr-21 09:21N 22°52' E 113°33'0 0.0
2016-Apr-21 08:33N 22°52' E 113°33'0 0.0
2016-Apr-21 07:13N 22°52' E 113°33'0 0.0
2016-Apr-21 06:26N 22°52' E 113°33'0 0.0
2016-Apr-21 05:28N 22°52' E 113°33'0 0.0
2016-Apr-21 04:31N 22°52' E 113°33'0 0.0
2016-Apr-20 23:04N 22°52' E 113°33'0 0.0
2016-Apr-20 22:17N 22°52' E 113°33'0 0.0
2016-Apr-20 20:30N 22°52' E 113°33'0 0.0
2016-Apr-20 19:23N 22°52' E 113°33'0 0.0
2016-Apr-20 18:30N 22°52' E 113°33'0 0.0
2016-Apr-20 17:31N 22°52' E 113°33'0 0.0
2016-Apr-20 16:33N 22°52' E 113°33'0 0.0
2016-Apr-20 07:32N 22°52' E 113°33'0 0.0
2016-Apr-20 06:15N 22°52' E 113°33'0 0.0
2016-Apr-20 05:33N 22°52' E 113°33'0 0.0
2016-Apr-20 04:24N 22°52' E 113°33'2 0.3
2016-Apr-19 21:06N 22°53' E 113°31'  
Track history (hours):
 
Tides and Currents Weather Stations Pressure Air Temp Water Temp Dewpoint Dewpoint Depression Visibility Wind Speed Wind Dir Waves Ship Positions

Dong Gui 5

Last reported at 2016-Apr-27 01:21 UTC. Time now 2016-Apr-28 19:45 UTC.
Position N 22°55' E 113°26'.

Length 62 m.

Type: Tanker. MMSI: 412500730.

Date/timePositionNaut miles runAvg speedWind from/ knotsBaromVisibWave heightAir tempDewpointWater temp
2016-Apr-27 01:21N 22°55' E 113°26'6 6.6
2016-Apr-27 00:23N 22°52' E 113°32'2 1.6
2016-Apr-26 23:10N 22°51' E 113°34'0 0.0
2016-Apr-26 22:14N 22°51' E 113°34'0 0.0
2016-Apr-26 21:16N 22°51' E 113°34'0 0.0
2016-Apr-26 19:25N 22°51' E 113°34'0 0.0
2016-Apr-26 05:20N 22°51' E 113°33'0 0.0
2016-Apr-26 03:17N 22°51' E 113°33'0 0.0
2016-Apr-26 01:27N 22°51' E 113°33'0 0.0
2016-Apr-26 00:32N 22°51' E 113°33'0 0.1
2016-Apr-25 23:33N 22°51' E 113°34'0 0.0
2016-Apr-25 22:24N 22°51' E 113°34'0 0.0
2016-Apr-25 21:33N 22°51' E 113°34'0 0.0
2016-Apr-25 20:31N 22°51' E 113°34'0 0.1
2016-Apr-25 19:33N 22°51' E 113°33'0 0.1
2016-Apr-25 18:31N 22°51' E 113°33'0 0.0
2016-Apr-25 17:31N 22°51' E 113°33'0 0.0
2016-Apr-25 16:24N 22°51' E 113°33'0 0.0
2016-Apr-25 15:21N 22°51' E 113°33'0 0.0
2016-Apr-25 14:23N 22°51' E 113°33'0 0.0
2016-Apr-25 13:33N 22°51' E 113°33'0 0.1
2016-Apr-25 12:23N 22°51' E 113°34'0 0.0
2016-Apr-25 11:32N 22°51' E 113°34'0 0.0
2016-Apr-25 10:17N 22°51' E 113°34'0 0.0
2016-Apr-25 09:31N 22°51' E 113°34'0 0.0
2016-Apr-25 08:33N 22°51' E 113°34'0 0.0
2016-Apr-25 07:28N 22°51' E 113°34'0 0.0
2016-Apr-25 06:30N 22°51' E 113°34'0 0.0
2016-Apr-25 04:10N 22°51' E 113°33'0 0.0
2016-Apr-25 03:12N 22°51' E 113°33'0 0.0
2016-Apr-25 02:30N 22°51' E 113°33'0 0.0
2016-Apr-25 00:25N 22°51' E 113°33'0 0.1
2016-Apr-24 23:29N 22°51' E 113°34'0 0.0
2016-Apr-24 22:31N 22°51' E 113°34'0 0.0
2016-Apr-24 21:30N 22°51' E 113°34'0 0.0
2016-Apr-24 20:28N 22°51' E 113°34'0 0.0
2016-Apr-24 19:28N 22°51' E 113°34'0 0.0
2016-Apr-24 17:28N 22°51' E 113°33'0 0.0
2016-Apr-24 16:30N 22°51' E 113°33'0 0.0
2016-Apr-24 14:08N 22°51' E 113°33'0 0.0
2016-Apr-24 13:26N 22°51' E 113°33'0 0.1
2016-Apr-24 12:28N 22°51' E 113°34'0 0.0
2016-Apr-24 11:17N 22°51' E 113°34'0 0.0
2016-Apr-24 10:28N 22°51' E 113°34'0 0.0
2016-Apr-24 09:31N 22°51' E 113°34'0 0.0
2016-Apr-24 08:29N 22°51' E 113°34'0 0.0
2016-Apr-24 06:27N 22°51' E 113°34'0 0.0
2016-Apr-24 05:32N 22°51' E 113°34'7 6.4
2016-Apr-24 04:30N 22°58' E 113°33'1 0.8
2016-Apr-24 03:12N 22°58' E 113°34'0 0.0
2016-Apr-24 02:32N 22°58' E 113°34'0 0.0
2016-Apr-24 01:32N 22°58' E 113°34'0 0.0
2016-Apr-24 00:31N 22°58' E 113°34'0 0.0
2016-Apr-23 22:08N 22°58' E 113°34'0 0.0
2016-Apr-23 21:27N 22°58' E 113°34'0 0.0
2016-Apr-23 19:33N 22°58' E 113°34'0 0.0
2016-Apr-23 18:06N 22°58' E 113°34'0 0.0
2016-Apr-23 17:32N 22°58' E 113°34'0 0.0
2016-Apr-23 16:31N 22°58' E 113°34'0 0.0
2016-Apr-23 14:08N 22°58' E 113°34'4 0.5
2016-Apr-23 06:28N 22°57' E 113°30'6 0.9
2016-Apr-22 23:33N 22°52' E 113°33'0 0.0
2016-Apr-22 22:31N 22°52' E 113°33'0 0.0
2016-Apr-22 21:27N 22°52' E 113°33'0 0.0
2016-Apr-22 20:30N 22°52' E 113°33'0 0.0
2016-Apr-22 19:32N 22°52' E 113°33'0 0.0
2016-Apr-22 18:33N 22°52' E 113°33'0 0.0
2016-Apr-22 11:16N 22°52' E 113°33'0 0.0
2016-Apr-22 10:33N 22°52' E 113°33'0 0.0
2016-Apr-22 09:32N 22°52' E 113°33'0 0.0
2016-Apr-22 08:21N 22°52' E 113°33'0 0.0
2016-Apr-22 07:33N 22°52' E 113°33'0 0.0
2016-Apr-22 06:31N 22°52' E 113°33'0 0.0
2016-Apr-22 05:33N 22°52' E 113°33'0 0.0
2016-Apr-21 23:33N 22°52' E 113°33'0 0.0
2016-Apr-21 22:28N 22°52' E 113°33'0 0.0
2016-Apr-21 21:31N 22°52' E 113°33'0 0.0
2016-Apr-21 20:33N 22°52' E 113°33'0 0.0
2016-Apr-21 19:28N 22°52' E 113°33'0 0.0
2016-Apr-21 18:31N 22°52' E 113°33'0 0.0
2016-Apr-21 17:30N 22°52' E 113°33'0 0.0
2016-Apr-21 16:30N 22°52' E 113°33'0 0.0
2016-Apr-21 11:16N 22°52' E 113°33'0 0.0
2016-Apr-21 10:28N 22°52' E 113°33'0 0.0
2016-Apr-21 09:21N 22°52' E 113°33'0 0.0
2016-Apr-21 08:33N 22°52' E 113°33'0 0.0
2016-Apr-21 07:13N 22°52' E 113°33'0 0.0
2016-Apr-21 06:26N 22°52' E 113°33'0 0.0
2016-Apr-21 05:28N 22°52' E 113°33'0 0.0
2016-Apr-21 04:31N 22°52' E 113°33'0 0.0
2016-Apr-20 23:04N 22°52' E 113°33'0 0.0
2016-Apr-20 22:17N 22°52' E 113°33'0 0.0
2016-Apr-20 20:30N 22°52' E 113°33'0 0.0
2016-Apr-20 19:23N 22°52' E 113°33'0 0.0
2016-Apr-20 18:30N 22°52' E 113°33'0 0.0
2016-Apr-20 17:31N 22°52' E 113°33'0 0.0
2016-Apr-20 16:33N 22°52' E 113°33'0 0.0
2016-Apr-20 07:32N 22°52' E 113°33'0 0.0
2016-Apr-20 06:15N 22°52' E 113°33'0 0.0
2016-Apr-20 05:33N 22°52' E 113°33'0 0.0
2016-Apr-20 04:24N 22°52' E 113°33'2 0.3
2016-Apr-19 21:06N 22°53' E 113°31'  

Dump ship's entire track history